TimeAKST,TemperatureF,Dew PointF,Humidity,Sea Level PressureIn,VisibilityMPH,Wind Direction,Wind SpeedMPH,Gust SpeedMPH,PrecipitationIn,Events,Conditions,WindDirDegrees,DateUTC
12:16 AM,37.4,33.8,87,29.64,10.0,SSE,6.9,-,N/A,,Overcast,150,2013-01-17 09:16:00
12:36 AM,37.4,33.8,87,29.62,10.0,SE,10.4,-,N/A,,Overcast,140,2013-01-17 09:36:00
12:56 AM,37.4,33.8,87,29.61,10.0,SE,9.2,-,N/A,,Overcast,130,2013-01-17 09:56:00
1:16 AM,37.4,33.8,87,29.60,10.0,SE,10.4,-,N/A,,Overcast,130,2013-01-17 10:16:00
1:36 AM,37.4,33.8,87,29.58,10.0,SE,9.2,-,N/A,,Overcast,130,2013-01-17 10:36:00
1:56 AM,37.4,33.8,87,29.57,10.0,SE,9.2,-,N/A,,Overcast,140,2013-01-17 10:56:00
2:16 AM,37.4,33.8,87,29.56,10.0,SE,9.2,-,N/A,,Overcast,130,2013-01-17 11:16:00
2:36 AM,39.2,35.6,87,29.54,10.0,SE,11.5,-,N/A,,Overcast,130,2013-01-17 11:36:00
2:56 AM,39.2,35.6,87,29.53,10.0,ESE,12.7,-,N/A,,Overcast,120,2013-01-17 11:56:00
3:16 AM,39.2,35.6,87,29.51,10.0,SE,11.5,-,N/A,,Overcast,130,2013-01-17 12:16:00
3:36 AM,39.2,35.6,87,29.49,10.0,SE,11.5,-,N/A,,Overcast,130,2013-01-17 12:36:00
3:56 AM,41.0,35.6,81,29.48,10.0,SSE,13.8,18.4,N/A,,Overcast,150,2013-01-17 12:56:00
4:16 AM,41.0,35.6,81,29.48,10.0,SSE,13.8,-,N/A,,Overcast,150,2013-01-17 13:16:00
4:36 AM,42.8,37.4,81,29.48,10.0,SE,16.1,24.2,N/A,,Overcast,140,2013-01-17 13:36:00
4:56 AM,42.8,37.4,81,29.47,10.0,SE,15.0,23.0,N/A,,Overcast,140,2013-01-17 13:56:00
5:16 AM,42.8,37.4,81,29.46,10.0,SE,17.3,-,N/A,,Overcast,140,2013-01-17 14:16:00
5:36 AM,41.0,37.4,87,29.45,10.0,SE,13.8,21.9,N/A,,Overcast,140,2013-01-17 14:36:00
5:56 AM,42.8,35.6,76,29.44,10.0,SSE,10.4,-,N/A,,Overcast,150,2013-01-17 14:56:00
6:16 AM,42.8,35.6,76,29.44,10.0,SSE,12.7,19.6,N/A,,Overcast,150,2013-01-17 15:16:00
6:36 AM,42.8,35.6,76,29.44,10.0,SSE,11.5,18.4,N/A,,Overcast,150,2013-01-17 15:36:00
6:56 AM,42.8,35.6,76,29.44,10.0,SE,13.8,-,N/A,,Overcast,140,2013-01-17 15:56:00
7:16 AM,42.8,35.6,76,29.44,10.0,SE,16.1,-,N/A,,Overcast,140,2013-01-17 16:16:00
7:36 AM,42.8,35.6,76,29.45,10.0,SE,15.0,20.7,N/A,,Overcast,140,2013-01-17 16:36:00
7:56 AM,41.0,35.6,81,29.45,10.0,SE,15.0,20.7,N/A,,Overcast,140,2013-01-17 16:56:00
8:16 AM,41.0,35.6,81,29.46,10.0,SE,13.8,-,N/A,,Overcast,130,2013-01-17 17:16:00
8:36 AM,41.0,35.6,81,29.46,10.0,SE,13.8,-,N/A,,Overcast,130,2013-01-17 17:36:00
8:56 AM,41.0,35.6,81,29.47,10.0,SE,11.5,-,N/A,,Overcast,140,2013-01-17 17:56:00
9:16 AM,41.0,35.6,81,29.48,9.0,SE,12.7,-,N/A,,Overcast,140,2013-01-17 18:16:00
9:36 AM,41.0,35.6,81,29.48,10.0,SE,12.7,-,N/A,,Overcast,140,2013-01-17 18:36:00
9:56 AM,41.0,35.6,81,29.49,5.0,SE,15.0,-,N/A,,Overcast,140,2013-01-17 18:56:00
10:16 AM,41.0,35.6,81,29.50,7.0,SE,11.5,-,N/A,,Overcast,130,2013-01-17 19:16:00
10:36 AM,41.0,35.6,81,29.50,9.0,SE,13.8,-,N/A,,Overcast,130,2013-01-17 19:36:00
10:56 AM,41.0,37.4,87,29.50,10.0,SE,11.5,-,N/A,,Overcast,140,2013-01-17 19:56:00
11:16 AM,42.8,37.4,81,29.51,8.0,SSE,12.7,-,N/A,,Overcast,150,2013-01-17 20:16:00
11:36 AM,42.8,37.4,81,29.51,8.0,SSE,11.5,-,N/A,,Overcast,150,2013-01-17 20:36:00
11:56 AM,42.8,37.4,81,29.52,7.0,South,5.8,-,N/A,,Overcast,190,2013-01-17 20:56:00
12:16 PM,41.0,37.4,87,29.54,8.0,South,5.8,-,N/A,,Overcast,170,2013-01-17 21:16:00
12:36 PM,41.0,35.6,81,29.55,6.0,SE,5.8,-,N/A,,Overcast,130,2013-01-17 21:36:00
12:56 PM,41.0,35.6,81,29.55,8.0,SE,5.8,-,N/A,,Overcast,140,2013-01-17 21:56:00
1:16 PM,41.0,35.6,81,29.57,3.0,SW,6.9,-,N/A,,Overcast,220,2013-01-17 22:16:00
1:36 PM,39.2,35.6,87,29.58,10.0,SSW,8.1,-,N/A,,Overcast,210,2013-01-17 22:36:00
1:56 PM,39.2,33.8,81,29.58,10.0,SW,13.8,20.7,N/A,,Scattered Clouds,220,2013-01-17 22:56:00
2:16 PM,39.2,33.8,81,29.59,10.0,SSW,16.1,21.9,N/A,,Mostly Cloudy,210,2013-01-17 23:16:00
2:36 PM,39.2,33.8,81,29.60,10.0,SSW,15.0,21.9,N/A,,Mostly Cloudy,210,2013-01-17 23:36:00
2:56 PM,39.2,33.8,81,29.61,10.0,SSW,11.5,18.4,N/A,,Mostly Cloudy,200,2013-01-17 23:56:00
3:16 PM,39.2,33.8,81,29.62,10.0,South,9.2,-,N/A,,Mostly Cloudy,190,2013-01-18 00:16:00
3:36 PM,39.2,33.8,81,29.63,10.0,South,9.2,-,N/A,,Mostly Cloudy,190,2013-01-18 00:36:00
3:56 PM,39.2,33.8,81,29.63,10.0,SSW,15.0,20.7,N/A,,Scattered Clouds,200,2013-01-18 00:56:00
4:16 PM,39.2,33.8,81,29.65,8.0,South,5.8,18.4,N/A,,Mostly Cloudy,190,2013-01-18 01:16:00
4:36 PM,37.4,32.0,81,29.65,10.0,South,12.7,-,N/A,,Mostly Cloudy,180,2013-01-18 01:36:00
4:56 PM,37.4,32.0,81,29.65,10.0,South,12.7,17.3,N/A,,Mostly Cloudy,180,2013-01-18 01:56:00
5:16 PM,37.4,32.0,81,29.67,10.0,SSW,10.4,-,N/A,,Overcast,210,2013-01-18 02:16:00
5:36 PM,39.2,32.0,75,29.68,10.0,SW,8.1,18.4,N/A,,Mostly Cloudy,230,2013-01-18 02:36:00
5:56 PM,39.2,30.2,70,29.68,10.0,WSW,11.5,25.3,N/A,,Partly Cloudy,240,2013-01-18 02:56:00
6:16 PM,37.4,30.2,75,29.69,10.0,WSW,17.3,24.2,N/A,,Scattered Clouds,240,2013-01-18 03:16:00
6:36 PM,39.2,28.4,65,29.70,10.0,WSW,15.0,24.2,N/A,,Scattered Clouds,240,2013-01-18 03:36:00
6:56 PM,37.4,26.6,65,29.72,10.0,WSW,11.5,20.7,N/A,,Mostly Cloudy,240,2013-01-18 03:56:00
7:16 PM,37.4,26.6,65,29.73,10.0,SW,13.8,20.7,N/A,,Partly Cloudy,220,2013-01-18 04:16:00
7:36 PM,37.4,24.8,60,29.73,10.0,SSW,13.8,23.0,N/A,,Mostly Cloudy,210,2013-01-18 04:36:00
7:56 PM,37.4,24.8,60,29.74,10.0,SW,8.1,18.4,N/A,,Mostly Cloudy,220,2013-01-18 04:56:00
8:16 PM,37.4,21.2,52,29.74,10.0,SSW,9.2,16.1,N/A,,Partly Cloudy,210,2013-01-18 05:16:00
8:36 PM,35.6,26.6,70,29.76,10.0,South,6.9,18.4,N/A,,Scattered Clouds,190,2013-01-18 05:36:00
8:56 PM,35.6,26.6,70,29.77,10.0,South,9.2,-,N/A,,Scattered Clouds,190,2013-01-18 05:56:00
9:16 PM,35.6,28.4,75,29.78,10.0,SSE,8.1,-,N/A,,Partly Cloudy,150,2013-01-18 06:16:00
9:36 PM,35.6,26.6,70,29.79,10.0,SSW,10.4,-,N/A,,Scattered Clouds,210,2013-01-18 06:36:00
9:56 PM,35.6,28.4,75,29.81,10.0,SSW,10.4,-,N/A,,Mostly Cloudy,210,2013-01-18 06:56:00
10:16 PM,35.6,28.4,75,29.82,10.0,South,9.2,-,N/A,,Overcast,180,2013-01-18 07:16:00
10:36 PM,35.6,26.6,70,29.83,10.0,South,11.5,23.0,N/A,,Mostly Cloudy,190,2013-01-18 07:36:00
10:56 PM,35.6,26.6,70,29.83,10.0,South,8.1,-,N/A,,Overcast,190,2013-01-18 07:56:00
11:16 PM,35.6,26.6,70,29.84,10.0,SSW,8.1,-,N/A,,Mostly Cloudy,200,2013-01-18 08:16:00
11:36 PM,35.6,24.8,65,29.85,10.0,SW,13.8,19.6,N/A,,Clear,220,2013-01-18 08:36:00
11:56 PM,35.6,24.8,65,29.86,10.0,SW,11.5,20.7,N/A,,Clear,220,2013-01-18 08:56:00